Time;durP1;ratioP1;P1;durP2;ratioP2;P2;SDS_P1;SDS_P2;PMS_P1;PMS_P2;Temp;Humidity;BMP_temperature;BMP_pressure;BME280_temperature;BME280_humidity;BME280_pressure;Samples;Min_cycle;Max_cycle;Signal;HPM_P1;HPM_P2
2023/05/14 00:01:13;;;;;;;20.00;11.80;;;;;;;7.36;100.00;101800.32;107160;1255;70412;-75
2023/05/14 00:03:42;;;;;;;19.10;11.00;;;;;;;7.27;100.00;101800.52;107144;1244;73206;-77
2023/05/14 00:06:12;;;;;;;18.50;11.80;;;;;;;7.19;100.00;101800.48;107179;1245;62482;-75
2023/05/14 00:08:41;;;;;;;16.30;10.90;;;;;;;7.13;100.00;101804.17;107278;1244;61498;-74
2023/05/14 00:11:09;;;;;;;18.50;11.50;;;;;;;7.07;100.00;101805.65;107106;1245;73591;-74
2023/05/14 00:13:38;;;;;;;17.10;11.30;;;;;;;6.98;100.00;101806.53;107104;1245;72511;-74
2023/05/14 00:16:07;;;;;;;15.60;10.40;;;;;;;6.91;100.00;101805.09;107227;1255;59998;-74
2023/05/14 00:18:36;;;;;;;15.00;10.80;;;;;;;6.82;100.00;101805.25;107038;1248;64023;-76
2023/05/14 00:21:05;;;;;;;16.00;11.40;;;;;;;6.77;100.00;101808.55;107167;1245;59480;-75
2023/05/14 00:23:34;;;;;;;15.90;10.80;;;;;;;6.73;100.00;101808.91;107150;1245;59032;-74
2023/05/14 00:26:04;;;;;;;17.40;11.50;;;;;;;6.66;100.00;101812.98;107090;1248;62490;-75
2023/05/14 00:28:32;;;;;;;16.70;11.10;;;;;;;6.64;100.00;101810.45;107162;1244;71442;-75
2023/05/14 00:31:01;;;;;;;17.20;11.80;;;;;;;6.63;100.00;101804.59;107150;1248;70609;-75
2023/05/14 00:33:31;;;;;;;21.10;12.80;;;;;;;6.61;100.00;101799.30;107178;1245;63727;-75
2023/05/14 00:36:00;;;;;;;16.80;11.20;;;;;;;6.57;100.00;101796.18;107134;1245;62092;-74
2023/05/14 00:38:29;;;;;;;15.60;11.60;;;;;;;6.56;100.00;101793.27;107200;1255;61313;-76
2023/05/14 00:40:58;;;;;;;18.10;11.40;;;;;;;6.55;100.00;101790.38;107128;1257;63365;-76
2023/05/14 00:43:27;;;;;;;16.80;11.60;;;;;;;6.53;100.00;101791.66;107152;1245;71893;-77
2023/05/14 00:45:56;;;;;;;16.50;10.90;;;;;;;6.51;100.00;101785.66;107306;1249;61144;-76
2023/05/14 00:48:25;;;;;;;16.70;11.40;;;;;;;6.49;100.00;101782.30;107325;1245;72820;-77
2023/05/14 00:50:54;;;;;;;18.80;10.90;;;;;;;6.47;100.00;101782.55;107370;1248;62742;-78
2023/05/14 00:53:23;;;;;;;16.40;11.00;;;;;;;6.43;100.00;101777.34;108161;1244;61500;-78
2023/05/14 00:55:52;;;;;;;17.20;10.90;;;;;;;6.42;100.00;101778.92;108377;1248;62698;-78
2023/05/14 00:58:21;;;;;;;17.30;10.90;;;;;;;6.40;100.00;101781.09;107409;1248;72120;-77
2023/05/14 01:00:50;;;;;;;18.00;12.20;;;;;;;6.38;100.00;101777.88;107448;1248;60242;-77
2023/05/14 01:03:19;;;;;;;18.80;13.20;;;;;;;6.36;100.00;101772.92;107489;1245;73004;-76
2023/05/14 01:06:17;;;;;;;18.90;12.20;;;;;;;6.35;100.00;101771.39;107349;1248;62501;-74
2023/05/14 01:09:02;;;;;;;17.40;12.90;;;;;;;6.33;100.00;101768.37;107298;1244;59287;-74
2023/05/14 01:12:04;;;;;;;21.60;12.50;;;;;;;6.32;100.00;101768.75;107336;1245;73510;-74
2023/05/14 01:15:05;;;;;;;20.70;13.00;;;;;;;6.30;100.00;101773.16;107117;1253;61483;-74
2023/05/14 01:17:57;;;;;;;19.50;12.70;;;;;;;6.30;100.00;101774.89;107476;1245;69856;-76
2023/05/14 01:20:26;;;;;;;21.20;13.10;;;;;;;6.27;100.00;101773.11;107271;1248;74128;-79
2023/05/14 01:22:54;;;;;;;16.80;11.40;;;;;;;6.24;100.00;101776.67;107179;1255;59089;-78
2023/05/14 01:25:23;;;;;;;17.80;11.30;;;;;;;6.18;100.00;101781.73;107353;1247;59064;-77
2023/05/14 01:28:01;;;;;;;15.80;11.80;;;;;;;6.11;100.00;101778.01;107417;1249;73472;-76
2023/05/14 01:30:53;;;;;;;15.80;11.50;;;;;;;6.07;100.00;101780.41;107421;1252;62021;-76
2023/05/14 01:33:24;;;;;;;18.60;11.50;;;;;;;6.03;100.00;101776.41;107129;1248;69269;-71
2023/05/14 01:35:54;;;;;;;16.90;11.40;;;;;;;5.98;100.00;101774.14;107106;1245;62911;-75
2023/05/14 01:38:24;;;;;;;15.90;11.60;;;;;;;5.95;100.00;101774.11;107270;1245;58925;-75
2023/05/14 01:40:55;;;;;;;16.50;11.50;;;;;;;5.90;100.00;101776.14;107034;1248;59033;-76
2023/05/14 01:43:23;;;;;;;15.30;11.20;;;;;;;5.86;100.00;101782.69;107424;1252;64320;-78
2023/05/14 01:45:54;;;;;;;17.10;11.30;;;;;;;5.81;100.00;101782.69;107267;1253;61580;-77
2023/05/14 01:48:23;;;;;;;16.50;11.40;;;;;;;5.72;100.00;101782.82;107183;1245;68994;-77
2023/05/14 01:50:52;;;;;;;16.70;11.30;;;;;;;5.63;100.00;101780.71;107297;1249;63632;-76
2023/05/14 01:53:21;;;;;;;16.70;11.70;;;;;;;5.59;100.00;101787.27;107135;1244;62881;-75
2023/05/14 01:55:49;;;;;;;18.90;11.80;;;;;;;5.59;100.00;101787.95;107237;1246;60900;-73
2023/05/14 01:58:18;;;;;;;20.00;12.20;;;;;;;5.57;100.00;101786.28;107117;1253;64033;-73
2023/05/14 02:00:47;;;;;;;17.40;11.60;;;;;;;5.58;100.00;101788.33;107097;1245;72032;-73
2023/05/14 02:03:16;;;;;;;17.80;11.80;;;;;;;5.55;100.00;101792.38;107113;1245;60014;-74
2023/05/14 02:05:45;;;;;;;21.30;11.40;;;;;;;5.53;100.00;101795.73;107008;1248;62424;-74
2023/05/14 02:08:14;;;;;;;16.80;11.90;;;;;;;5.52;100.00;101795.45;107119;1244;59079;-75
2023/05/14 02:10:43;;;;;;;19.00;11.70;;;;;;;5.53;100.00;101797.48;107096;1249;59010;-76
2023/05/14 02:13:12;;;;;;;16.70;11.40;;;;;;;5.54;100.00;101796.41;107274;1255;63251;-76
2023/05/14 02:15:41;;;;;;;17.50;11.60;;;;;;;5.56;100.00;101794.46;107260;1244;71743;-75
2023/05/14 02:18:10;;;;;;;16.60;12.50;;;;;;;5.56;100.00;101795.98;107290;1246;71543;-74
2023/05/14 02:20:38;;;;;;;16.30;11.20;;;;;;;5.58;100.00;101796.29;107109;1245;73300;-74
2023/05/14 02:23:08;;;;;;;17.40;11.70;;;;;;;5.58;100.00;101792.29;107311;1251;63499;-76
2023/05/14 02:25:37;;;;;;;18.30;12.40;;;;;;;5.60;100.00;101796.91;107352;1256;60804;-74
2023/05/14 02:28:05;;;;;;;17.60;11.90;;;;;;;5.58;100.00;101795.06;107262;1246;73460;-76
2023/05/14 02:30:34;;;;;;;18.40;12.00;;;;;;;5.52;100.00;101794.23;107155;1246;62125;-74
2023/05/14 02:33:03;;;;;;;18.20;12.70;;;;;;;5.47;100.00;101791.13;106987;1249;59473;-74
2023/05/14 02:35:32;;;;;;;17.30;12.20;;;;;;;5.42;100.00;101792.14;107220;1246;63127;-73
2023/05/14 02:38:02;;;;;;;17.60;12.70;;;;;;;5.38;100.00;101792.27;107159;1255;59074;-73
2023/05/14 02:40:30;;;;;;;23.60;12.70;;;;;;;5.36;100.00;101796.50;107278;1245;60286;-74
2023/05/14 02:42:59;;;;;;;20.00;13.10;;;;;;;5.33;100.00;101796.96;107155;1255;65204;-74
2023/05/14 02:45:28;;;;;;;20.50;12.80;;;;;;;5.29;100.00;101796.05;107835;1246;61758;-74
2023/05/14 02:47:57;;;;;;;18.70;12.70;;;;;;;5.25;100.00;101797.38;107162;1245;59558;-73
2023/05/14 02:50:26;;;;;;;17.40;12.10;;;;;;;5.24;100.00;101795.52;106971;1249;71562;-72
2023/05/14 02:52:55;;;;;;;18.70;12.20;;;;;;;5.26;100.00;101792.69;106876;1248;59138;-72
2023/05/14 02:55:25;;;;;;;15.20;11.90;;;;;;;5.30;100.00;101791.02;107122;1251;58974;-75
2023/05/14 02:57:54;;;;;;;19.00;12.90;;;;;;;5.36;100.00;101790.81;106942;1244;72745;-75
2023/05/14 03:00:23;;;;;;;20.20;13.70;;;;;;;5.44;100.00;101794.84;107051;1248;72214;-74
2023/05/14 03:02:52;;;;;;;17.60;12.30;;;;;;;5.50;100.00;101793.80;106969;1255;69973;-74
2023/05/14 03:05:22;;;;;;;21.20;12.70;;;;;;;5.50;100.00;101792.92;107039;1247;73045;-75
2023/05/14 03:07:52;;;;;;;19.80;13.80;;;;;;;5.51;100.00;101792.04;107057;1246;63008;-74
2023/05/14 03:10:21;;;;;;;21.10;12.80;;;;;;;5.52;100.00;101792.00;107267;1245;59068;-74
2023/05/14 03:12:50;;;;;;;21.00;12.70;;;;;;;5.53;100.00;101790.73;107049;1256;73600;-74
2023/05/14 03:15:19;;;;;;;18.40;12.50;;;;;;;5.58;100.00;101793.70;107101;1256;72690;-75
2023/05/14 03:17:48;;;;;;;21.10;13.80;;;;;;;5.63;100.00;101791.83;107087;1255;70440;-75
2023/05/14 03:20:17;;;;;;;18.90;13.20;;;;;;;5.68;100.00;101790.58;107171;1248;74794;-75
2023/05/14 03:22:46;;;;;;;16.80;12.40;;;;;;;5.74;100.00;101801.63;107107;1253;59134;-76
2023/05/14 03:25:15;;;;;;;20.90;13.00;;;;;;;5.79;100.00;101806.27;107213;1245;59132;-77
2023/05/14 03:27:45;;;;;;;21.60;14.00;;;;;;;5.82;100.00;101810.11;107051;1256;62364;-74
2023/05/14 03:30:14;;;;;;;27.00;14.20;;;;;;;5.82;100.00;101814.82;107106;1254;73109;-74
2023/05/14 03:32:44;;;;;;;21.30;14.60;;;;;;;5.82;100.00;101816.20;107188;1247;70977;-74
2023/05/14 03:35:13;;;;;;;24.10;14.70;;;;;;;5.85;100.00;101822.48;107290;1252;73126;-74
2023/05/14 03:37:42;;;;;;;22.20;15.00;;;;;;;5.93;100.00;101819.47;107292;1246;59059;-74
2023/05/14 03:40:11;;;;;;;25.70;15.60;;;;;;;6.01;100.00;101816.41;107133;1244;61065;-76
2023/05/14 03:42:40;;;;;;;30.00;15.00;;;;;;;6.14;100.00;101812.50;107290;1249;63373;-76
2023/05/14 03:45:10;;;;;;;23.00;16.20;;;;;;;6.25;100.00;101816.07;107180;1248;71471;-76
2023/05/14 03:47:40;;;;;;;24.20;15.60;;;;;;;6.36;100.00;101817.38;107347;1247;70474;-76
2023/05/14 03:50:10;;;;;;;23.10;14.90;;;;;;;6.49;100.00;101817.10;107379;1256;74393;-77
2023/05/14 03:52:39;;;;;;;23.20;15.90;;;;;;;6.58;100.00;101820.89;107718;1256;58476;-75
2023/05/14 03:55:09;;;;;;;23.00;15.60;;;;;;;6.68;100.00;101822.41;108207;1253;60701;-76
2023/05/14 03:57:39;;;;;;;26.20;14.30;;;;;;;6.77;100.00;101822.09;108695;1245;73435;-76
2023/05/14 04:00:10;;;;;;;21.70;13.70;;;;;;;6.84;100.00;101826.65;107179;1246;61834;-79
2023/05/14 04:02:44;;;;;;;19.90;14.50;;;;;;;6.93;100.00;101828.40;107462;1246;68040;-76
2023/05/14 04:05:13;;;;;;;21.80;14.40;;;;;;;6.98;100.00;101829.06;107173;1254;63006;-76
2023/05/14 04:07:44;;;;;;;21.20;14.60;;;;;;;7.03;100.00;101834.88;106880;1255;62038;-75
2023/05/14 04:10:13;;;;;;;21.40;13.90;;;;;;;7.11;100.00;101839.61;107314;1245;58890;-76
2023/05/14 04:12:42;;;;;;;19.20;13.00;;;;;;;7.21;100.00;101845.27;107165;1245;63202;-74
2023/05/14 04:15:11;;;;;;;19.90;12.60;;;;;;;7.30;100.00;101844.54;107310;1246;61706;-79
2023/05/14 04:17:40;;;;;;;18.90;12.40;;;;;;;7.35;100.00;101844.02;107315;1246;59967;-80
2023/05/14 04:20:09;;;;;;;18.80;11.60;;;;;;;7.36;100.00;101847.27;106787;1253;386491;-74
2023/05/14 04:22:38;;;;;;;20.40;12.70;;;;;;;7.39;100.00;101842.83;107090;1245;58988;-75
2023/05/14 04:25:07;;;;;;;16.60;11.30;;;;;;;7.43;100.00;101841.95;106927;1248;59232;-74
2023/05/14 04:27:36;;;;;;;21.30;12.60;;;;;;;7.44;100.00;101839.14;107098;1255;64710;-73
2023/05/14 04:30:07;;;;;;;17.80;11.10;;;;;;;7.44;100.00;101841.53;107019;1246;71381;-74
2023/05/14 04:32:36;;;;;;;16.20;10.50;;;;;;;7.41;100.00;101842.70;107250;1248;70349;-75
2023/05/14 04:35:07;;;;;;;22.10;11.80;;;;;;;7.38;100.00;101845.09;107452;1244;63575;-74
2023/05/14 04:37:36;;;;;;;17.20;11.40;;;;;;;7.37;100.00;101849.29;107243;1245;59084;-75
2023/05/14 04:40:09;;;;;;;22.10;12.50;;;;;;;7.43;100.00;101847.84;107110;1247;58967;-76
2023/05/14 04:42:38;;;;;;;15.10;11.30;;;;;;;7.55;100.00;101848.20;106769;1250;72955;-77
2023/05/14 04:45:08;;;;;;;19.40;11.00;;;;;;;7.63;100.00;101852.04;107029;1246;72538;-75
2023/05/14 04:47:36;;;;;;;16.30;12.30;;;;;;;7.70;100.00;101854.34;107063;1256;70651;-76
2023/05/14 04:50:08;;;;;;;20.80;12.10;;;;;;;7.81;100.00;101860.81;107248;1246;73829;-74
2023/05/14 04:52:38;;;;;;;19.60;13.00;;;;;;;7.88;100.00;101864.15;107091;1252;57525;-75
2023/05/14 04:55:07;;;;;;;20.10;13.00;;;;;;;7.98;100.00;101860.42;107138;1246;61187;-75
2023/05/14 04:57:36;;;;;;;19.40;11.90;;;;;;;8.07;100.00;101859.16;107306;1246;64842;-75
2023/05/14 05:00:08;;;;;;;19.70;13.20;;;;;;;8.17;100.00;101856.14;107392;1250;61164;-74
2023/05/14 05:02:37;;;;;;;16.90;12.40;;;;;;;8.29;100.00;101859.59;107186;1246;70499;-77
2023/05/14 05:05:06;;;;;;;15.50;11.80;;;;;;;8.45;100.00;101858.73;107129;1245;73687;-75
2023/05/14 05:07:35;;;;;;;17.10;11.10;;;;;;;8.59;100.00;101862.60;107323;1246;59103;-77
2023/05/14 05:10:05;;;;;;;16.00;11.20;;;;;;;8.72;100.00;101858.21;107173;1248;59062;-75
2023/05/14 05:12:34;;;;;;;15.20;10.10;;;;;;;8.86;100.00;101854.23;107344;1245;62056;-75
2023/05/14 05:15:04;;;;;;;18.90;11.10;;;;;;;8.97;100.00;101853.36;107349;1246;60865;-75
2023/05/14 05:17:33;;;;;;;16.30;11.80;;;;;;;9.10;100.00;101855.38;107456;1256;61103;-75
2023/05/14 05:20:04;;;;;;;18.70;11.70;;;;;;;9.21;100.00;101856.58;107378;1248;73058;-77
2023/05/14 05:22:33;;;;;;;17.20;11.60;;;;;;;9.33;100.00;101856.50;107483;1253;63248;-78
2023/05/14 05:25:05;;;;;;;16.00;11.50;;;;;;;9.50;100.00;101855.13;107342;1256;61009;-73
2023/05/14 05:27:34;;;;;;;15.40;11.50;;;;;;;9.65;100.00;101858.04;107396;1246;74006;-75
2023/05/14 05:30:03;;;;;;;20.40;11.50;;;;;;;9.76;100.00;101856.45;107369;1255;72730;-76
2023/05/14 05:32:32;;;;;;;21.90;12.90;;;;;;;9.91;100.00;101853.95;107341;1245;59573;-74
2023/05/14 05:35:02;;;;;;;20.40;13.10;;;;;;;10.05;100.00;101853.05;107358;1255;63264;-76
2023/05/14 05:37:31;;;;;;;18.00;11.10;;;;;;;10.22;100.00;101847.98;107360;1245;62072;-76
2023/05/14 05:40:00;;;;;;;22.40;13.00;;;;;;;10.38;100.00;101851.67;107274;1246;61264;-75
2023/05/14 05:42:28;;;;;;;16.60;11.40;;;;;;;10.54;100.00;101851.70;107142;1248;73687;-76
2023/05/14 05:44:57;;;;;;;17.60;12.50;;;;;;;10.70;100.00;101853.27;107322;1244;71677;-74
2023/05/14 05:47:26;;;;;;;15.10;12.20;;;;;;;10.81;100.00;101852.30;107401;1244;70171;-75
2023/05/14 05:49:55;;;;;;;17.40;12.10;;;;;;;11.01;100.00;101850.34;107326;1245;73016;-76
2023/05/14 05:52:24;;;;;;;16.90;11.90;;;;;;;11.14;100.00;101844.55;107440;1255;62674;-74
2023/05/14 05:54:53;;;;;;;15.90;12.30;;;;;;;11.24;100.00;101844.81;107089;1248;59169;-73
2023/05/14 05:57:22;;;;;;;16.60;11.40;;;;;;;11.39;100.00;101845.02;107336;1256;62441;-76
2023/05/14 05:59:53;;;;;;;15.30;10.80;;;;;;;11.55;100.00;101842.50;107417;1244;72361;-75
2023/05/14 06:02:23;;;;;;;19.90;10.80;;;;;;;11.68;100.00;101841.75;107455;1244;70802;-75
2023/05/14 06:04:52;;;;;;;18.20;10.80;;;;;;;11.84;100.00;101841.16;107388;1244;74301;-73
2023/05/14 06:07:21;;;;;;;16.80;11.60;;;;;;;12.00;100.00;101834.82;107349;1253;61177;-74
2023/05/14 06:09:50;;;;;;;16.60;10.20;;;;;;;12.16;100.00;101838.34;107346;1252;61353;-74
2023/05/14 06:12:20;;;;;;;13.60;10.20;;;;;;;12.35;100.00;101837.68;107249;1245;75037;-72
2023/05/14 06:14:50;;;;;;;14.10;9.40;;;;;;;12.51;100.00;101836.02;107246;1244;62120;-74
2023/05/14 06:17:19;;;;;;;28.80;16.40;;;;;;;12.63;100.00;101833.70;107322;1245;70725;-75
2023/05/14 06:19:48;;;;;;;14.70;10.20;;;;;;;12.77;100.00;101830.89;107174;1246;73466;-74
2023/05/14 06:22:17;;;;;;;17.30;10.20;;;;;;;12.91;100.00;101829.26;107344;1250;59367;-76
2023/05/14 06:24:47;;;;;;;14.30;9.40;;;;;;;13.09;98.10;101829.88;107578;1244;61910;-77
2023/05/14 06:27:16;;;;;;;22.60;15.00;;;;;;;13.21;96.67;101826.44;107660;1241;73223;-77
2023/05/14 06:29:44;;;;;;;16.00;9.00;;;;;;;13.41;96.72;101821.86;107552;1245;72924;-78
2023/05/14 06:32:14;;;;;;;12.00;8.50;;;;;;;13.55;90.23;101821.07;107278;1251;61483;-77
2023/05/14 06:34:43;;;;;;;13.40;9.40;;;;;;;13.71;91.97;101819.15;107351;1245;63103;-77
2023/05/14 06:37:12;;;;;;;13.40;8.50;;;;;;;13.86;86.76;101817.89;107670;1245;59188;-74
2023/05/14 06:39:47;;;;;;;11.90;9.20;;;;;;;14.03;89.24;101814.08;107592;1243;60261;-74
2023/05/14 06:42:16;;;;;;;10.90;7.90;;;;;;;14.21;89.25;101810.55;107686;1241;73131;-75
2023/05/14 06:44:45;;;;;;;12.40;7.80;;;;;;;14.41;88.84;101813.36;107642;1245;60980;-74
2023/05/14 06:47:14;;;;;;;12.30;8.40;;;;;;;14.57;87.38;101811.73;107696;1241;70476;-74
2023/05/14 06:49:42;;;;;;;14.10;8.40;;;;;;;14.72;81.36;101813.27;107501;1255;73575;-73
2023/05/14 06:52:11;;;;;;;13.40;8.60;;;;;;;14.80;79.78;101812.34;107592;1252;58692;-75
2023/05/14 06:54:40;;;;;;;13.00;8.70;;;;;;;15.00;85.82;101808.81;107496;1245;59163;-78
2023/05/14 06:57:09;;;;;;;10.60;7.20;;;;;;;15.20;83.14;101803.63;108173;1245;73447;-76
2023/05/14 06:59:38;;;;;;;11.20;7.50;;;;;;;15.35;80.80;101797.39;108391;1246;71746;-73
2023/05/14 07:02:06;;;;;;;12.60;7.90;;;;;;;15.46;81.36;101796.94;107260;1241;70774;-75
2023/05/14 07:04:35;;;;;;;20.20;11.00;;;;;;;15.56;81.95;101798.09;107460;1246;74822;-74
2023/05/14 07:07:04;;;;;;;14.60;9.50;;;;;;;15.72;79.69;101803.20;107473;1251;59597;-74
2023/05/14 07:09:33;;;;;;;16.50;11.50;;;;;;;15.79;79.67;101801.83;107219;1248;61199;-80
2023/05/14 07:12:03;;;;;;;17.10;11.00;;;;;;;15.89;78.63;101804.16;107272;1245;73646;-74
2023/05/14 07:14:32;;;;;;;12.90;8.10;;;;;;;16.00;75.51;101798.45;107344;1251;72686;-72
2023/05/14 07:17:01;;;;;;;9.60;6.50;;;;;;;16.01;73.28;101794.95;107254;1251;69652;-77
2023/05/14 07:19:29;;;;;;;9.70;6.00;;;;;;;16.14;64.85;101790.45;107285;1252;74268;-72
2023/05/14 07:21:58;;;;;;;12.20;7.30;;;;;;;16.33;65.98;101790.30;107462;1245;58845;-80
2023/05/14 07:24:27;;;;;;;10.80;7.10;;;;;;;16.53;63.71;101785.21;107453;1244;58866;-80
2023/05/14 07:26:56;;;;;;;9.70;6.50;;;;;;;16.68;61.21;101780.29;107493;1245;74493;-80
2023/05/14 07:29:25;;;;;;;8.70;6.20;;;;;;;16.79;62.57;101779.83;107450;1244;72721;-79
2023/05/14 07:31:53;;;;;;;9.10;6.50;;;;;;;16.93;63.18;101776.87;107359;1244;70063;-80
2023/05/14 07:34:22;;;;;;;10.10;6.30;;;;;;;17.03;62.15;101775.36;107257;1248;63649;-79
2023/05/14 07:36:51;;;;;;;12.40;5.90;;;;;;;17.16;62.00;101771.24;107416;1244;61013;-79
2023/05/14 07:39:20;;;;;;;9.50;5.90;;;;;;;17.28;61.34;101767.27;107473;1244;59137;-79
2023/05/14 07:41:50;;;;;;;8.80;4.90;;;;;;;17.45;60.26;101763.01;107447;1245;62932;-81
2023/05/14 07:44:19;;;;;;;8.80;5.00;;;;;;;17.59;56.48;101760.27;107423;1245;72444;-74
2023/05/14 07:46:48;;;;;;;9.40;5.00;;;;;;;17.80;56.76;101757.29;107387;1256;68289;-73
2023/05/14 07:49:17;;;;;;;8.00;5.40;;;;;;;17.88;53.65;101757.65;107037;1250;74348;-76
2023/05/14 07:51:45;;;;;;;7.30;5.50;;;;;;;17.84;55.10;101756.40;106895;1256;61545;-72
2023/05/14 07:54:14;;;;;;;8.40;5.40;;;;;;;17.88;55.53;101756.74;107258;1245;58508;-72
2023/05/14 07:56:43;;;;;;;6.80;4.90;;;;;;;17.96;55.74;101756.22;107221;1246;62203;-71
2023/05/14 07:59:12;;;;;;;7.80;5.20;;;;;;;18.13;55.82;101753.10;107614;1244;69369;-70
2023/05/14 08:01:41;;;;;;;8.00;5.40;;;;;;;18.39;56.65;101753.45;107239;1247;70164;-71
2023/05/14 08:04:14;;;;;;;12.10;6.00;;;;;;;18.59;55.64;101750.80;106985;1251;63711;-74
2023/05/14 08:06:44;;;;;;;7.00;5.30;;;;;;;18.81;55.20;101752.19;107112;1252;60523;-73
2023/05/14 08:09:13;;;;;;;8.30;5.80;;;;;;;18.94;53.70;101751.35;107306;1252;60772;-72
2023/05/14 08:11:41;;;;;;;9.50;5.60;;;;;;;18.86;52.31;101747.04;107252;1244;73989;-73
2023/05/14 08:14:10;;;;;;;9.70;5.40;;;;;;;18.97;53.25;101745.96;107385;1246;62021;-71
2023/05/14 08:16:39;;;;;;;8.60;5.20;;;;;;;19.07;52.18;101747.19;107323;1244;59971;-75
2023/05/14 08:19:08;;;;;;;7.20;4.70;;;;;;;19.12;51.76;101742.98;107495;1245;62728;-73
2023/05/14 08:21:37;;;;;;;8.60;4.50;;;;;;;19.20;49.76;101742.42;107418;1246;57520;-79
2023/05/14 08:24:06;;;;;;;7.50;4.90;;;;;;;19.45;52.00;101741.73;107431;1244;59251;-72
2023/05/14 08:26:35;;;;;;;6.40;4.90;;;;;;;19.63;51.07;101735.23;107617;1244;63400;-71
2023/05/14 08:29:04;;;;;;;8.00;4.50;;;;;;;19.81;49.52;101736.49;107532;1252;61766;-84
2023/05/14 08:31:33;;;;;;;9.20;4.50;;;;;;;19.82;47.30;101738.22;107366;1255;59237;-84
2023/05/14 08:34:02;;;;;;;6.10;4.20;;;;;;;19.87;46.50;101730.16;107371;1244;73069;-84
2023/05/14 08:36:31;;;;;;;6.20;4.30;;;;;;;19.95;46.71;101729.04;107330;1246;58926;-84
2023/05/14 08:39:00;;;;;;;6.70;4.00;;;;;;;19.96;46.83;101730.39;107349;1248;59456;-84
2023/05/14 08:41:29;;;;;;;8.70;5.10;;;;;;;20.21;46.74;101727.59;107424;1244;62192;-88
2023/05/14 08:44:13;;;;;;;8.40;4.70;;;;;;;20.40;46.02;101727.44;107379;1246;72528;-85
2023/05/14 08:46:43;;;;;;;8.00;4.50;;;;;;;20.32;45.59;101724.20;107461;1244;60331;-74
2023/05/14 08:49:42;;;;;;;7.20;4.50;;;;;;;20.53;46.57;101719.65;107939;1245;63250;-89
2023/05/14 08:52:12;;;;;;;8.30;4.60;;;;;;;20.83;45.37;101716.88;107722;1244;60549;-85
2023/05/14 08:54:41;;;;;;;8.50;4.70;;;;;;;20.89;44.36;101714.83;107441;1248;61626;-82
2023/05/14 08:57:10;;;;;;;5.90;4.10;;;;;;;21.05;44.34;101713.05;107337;1251;73176;-82
2023/05/14 08:59:40;;;;;;;7.30;4.10;;;;;;;21.04;43.61;101711.77;107553;1251;62128;-80
2023/05/14 09:02:12;;;;;;;10.10;4.40;;;;;;;20.82;43.12;101706.67;107434;1255;68713;-84
2023/05/14 09:04:42;;;;;;;6.60;4.20;;;;;;;21.05;43.76;101702.95;107517;1251;64008;-82
2023/05/14 09:07:11;;;;;;;5.50;3.80;;;;;;;21.28;42.24;101699.04;107446;1247;59982;-84
2023/05/14 09:09:40;;;;;;;8.40;4.10;;;;;;;21.22;41.53;101691.83;107881;1244;58708;-89
2023/05/14 09:12:09;;;;;;;5.60;3.70;;;;;;;21.28;40.39;101683.21;108329;1245;62182;-89
2023/05/14 09:14:38;;;;;;;10.20;3.60;;;;;;;21.41;40.37;101692.56;108099;1245;60853;-81
2023/05/14 09:17:07;;;;;;;5.20;3.30;;;;;;;21.52;39.48;101687.38;107274;1247;68668;-78
2023/05/14 09:19:37;;;;;;;5.00;3.60;;;;;;;21.73;39.12;101684.98;107426;1255;63196;-72
2023/05/14 09:22:16;;;;;;;6.40;3.60;;;;;;;21.77;38.68;101680.60;107303;1245;58974;-77
2023/05/14 09:24:46;;;;;;;7.80;3.60;;;;;;;21.91;38.49;101675.27;107414;1244;61212;-74
2023/05/14 09:27:19;;;;;;;7.10;3.40;;;;;;;22.06;38.59;101671.91;107448;1244;75172;-77
2023/05/14 09:29:48;;;;;;;6.80;4.10;;;;;;;22.25;38.35;101674.33;107550;1242;61494;-75
2023/05/14 09:32:17;;;;;;;10.90;3.80;;;;;;;22.30;37.66;101670.32;107363;1247;69846;-76
2023/05/14 09:34:45;;;;;;;5.90;3.20;;;;;;;22.07;36.56;101666.36;107358;1253;64075;-74
2023/05/14 09:37:14;;;;;;;6.00;3.10;;;;;;;22.19;36.09;101665.34;107537;1252;57739;-75
2023/05/14 09:39:43;;;;;;;6.50;2.50;;;;;;;22.23;34.52;101661.98;107468;1255;57525;-76
2023/05/14 09:42:12;;;;;;;5.50;3.00;;;;;;;22.29;32.71;101658.52;107388;1246;72673;-76
2023/05/14 09:44:41;;;;;;;5.60;3.20;;;;;;;22.33;32.47;101659.98;107448;1253;63064;-76
2023/05/14 09:47:09;;;;;;;14.40;4.40;;;;;;;22.06;32.02;101658.41;107468;1248;59674;-75
2023/05/14 09:49:39;;;;;;;5.70;3.70;;;;;;;21.97;32.07;101655.87;107368;1255;62516;-75
2023/05/14 09:52:08;;;;;;;9.50;3.40;;;;;;;22.18;32.45;101654.66;107509;1251;60412;-81
2023/05/14 09:54:37;;;;;;;5.80;3.60;;;;;;;22.26;32.21;101649.11;107347;1243;61668;-80
2023/05/14 09:57:06;;;;;;;4.60;3.30;;;;;;;22.33;31.75;101650.46;107424;1244;63490;-73
2023/05/14 09:59:35;;;;;;;5.80;3.80;;;;;;;22.28;32.12;101642.40;107364;1244;72225;-74
2023/05/14 10:02:05;;;;;;;7.30;4.10;;;;;;;22.26;31.68;101646.92;107519;1245;70836;-73
2023/05/14 10:04:35;;;;;;;9.60;4.60;;;;;;;22.01;31.84;101649.06;107585;1246;63268;-73
2023/05/14 10:07:04;;;;;;;7.20;4.10;;;;;;;21.94;31.93;101641.02;107544;1244;59001;-73
2023/05/14 10:09:37;;;;;;;10.20;4.90;;;;;;;21.89;31.89;101636.29;107357;1256;59092;-72
2023/05/14 10:12:07;;;;;;;8.50;4.90;;;;;;;21.72;31.37;101629.65;107452;1244;71666;-73
2023/05/14 10:14:42;;;;;;;8.90;4.90;;;;;;;21.93;31.61;101621.36;107409;1247;62495;-73
2023/05/14 10:17:17;;;;;;;6.60;3.80;;;;;;;22.25;32.48;101623.92;107496;1244;71413;-74
2023/05/14 10:19:51;;;;;;;8.10;3.90;;;;;;;22.67;31.97;101622.64;107265;1244;73757;-74
2023/05/14 10:22:24;;;;;;;7.00;4.90;;;;;;;23.06;32.15;101612.63;107381;1244;59023;-74
2023/05/14 10:24:55;;;;;;;19.20;9.30;;;;;;;23.43;29.64;101611.80;107527;1241;59228;-73
2023/05/14 10:27:24;;;;;;;7.10;5.10;;;;;;;23.26;29.41;101605.91;107462;1243;73500;-82
2023/05/14 10:29:54;;;;;;;7.10;4.70;;;;;;;23.18;30.08;101605.63;107339;1246;62084;-77
2023/05/14 10:32:25;;;;;;;5.90;4.10;;;;;;;23.87;30.11;101602.86;107500;1245;60383;-76
2023/05/14 10:34:54;;;;;;;7.60;4.70;;;;;;;24.50;29.38;101601.34;107342;1244;73833;-77
2023/05/14 10:37:27;;;;;;;6.90;4.60;;;;;;;24.64;28.24;101601.64;107143;1248;59230;-78
2023/05/14 10:40:05;;;;;;;11.90;6.20;;;;;;;24.76;27.93;101600.86;107241;1245;60975;-76
2023/05/14 10:42:42;;;;;;;6.60;4.20;;;;;;;25.07;28.06;101602.22;107043;1255;73294;-76
2023/05/14 10:45:13;;;;;;;6.10;4.60;;;;;;;25.32;27.53;101599.46;107261;1245;62799;-75
2023/05/14 10:47:45;;;;;;;7.80;4.50;;;;;;;24.96;28.00;101594.41;107081;1253;60333;-76
2023/05/14 10:50:15;;;;;;;6.20;4.10;;;;;;;25.12;28.20;101593.04;107268;1244;62620;-77
2023/05/14 10:52:45;;;;;;;9.80;4.90;;;;;;;24.86;28.05;101587.91;107326;1244;57426;-77
2023/05/14 10:55:15;;;;;;;7.60;4.80;;;;;;;24.19;28.97;101589.06;107346;1251;60931;-76
2023/05/14 10:57:45;;;;;;;8.40;4.80;;;;;;;24.38;29.00;101591.08;107236;1245;63597;-76
2023/05/14 11:00:15;;;;;;;9.90;5.60;;;;;;;24.19;28.78;101586.80;107177;1246;60892;-76
2023/05/14 11:02:45;;;;;;;8.50;4.60;;;;;;;24.80;28.51;101586.81;107181;1241;70498;-75
2023/05/14 11:05:18;;;;;;;5.50;4.20;;;;;;;24.82;28.24;101588.79;107234;1245;63744;-76
2023/05/14 11:07:49;;;;;;;8.40;4.50;;;;;;;25.04;27.75;101587.55;107211;1245;59052;-76
2023/05/14 11:10:20;;;;;;;7.40;4.00;;;;;;;25.59;26.81;101589.45;107300;1245;59058;-76
2023/05/14 11:12:50;;;;;;;;;;;;;;;26.05;26.36;101588.74;107330;1241;73471;-77
2023/05/14 11:15:24;;;;;;;5.50;4.20;;;;;;;25.72;27.14;101585.94;107443;1241;62478;-76
2023/05/14 11:17:53;;;;;;;7.80;3.90;;;;;;;26.26;26.97;101580.01;107728;1246;60921;-77
2023/05/14 11:20:22;;;;;;;11.60;4.00;;;;;;;26.52;26.47;101578.52;107261;1255;64526;-76